sensor_id;sensor_type;location;lat;lon;timestamp;temperature;humidity
16674;DHT22;8450;52.654;10.326;2023-04-24T05:21:37;8.60;99.90
16674;DHT22;8450;52.654;10.326;2023-04-24T05:24:05;8.60;99.90
16674;DHT22;8450;52.654;10.326;2023-04-24T05:26:56;8.60;99.90
16674;DHT22;8450;52.654;10.326;2023-04-24T05:29:29;8.50;99.90
16674;DHT22;8450;52.654;10.326;2023-04-24T05:31:56;8.50;99.90
16674;DHT22;8450;52.654;10.326;2023-04-24T05:34:22;8.50;99.90
16674;DHT22;8450;52.654;10.326;2023-04-24T05:36:52;8.60;99.90
16674;DHT22;8450;52.654;10.326;2023-04-24T05:39:19;8.60;99.90
16674;DHT22;8450;52.654;10.326;2023-04-24T05:41:45;8.60;99.90
16674;DHT22;8450;52.654;10.326;2023-04-24T05:44:10;8.60;99.90
16674;DHT22;8450;52.654;10.326;2023-04-24T05:46:36;8.60;99.90
16674;DHT22;8450;52.654;10.326;2023-04-24T05:49:02;8.60;99.90
16674;DHT22;8450;52.654;10.326;2023-04-24T05:51:29;8.70;99.90
16674;DHT22;8450;52.654;10.326;2023-04-24T05:53:54;8.70;99.90
16674;DHT22;8450;52.654;10.326;2023-04-24T05:56:20;8.80;99.90
16674;DHT22;8450;52.654;10.326;2023-04-24T05:58:50;8.80;99.90
16674;DHT22;8450;52.654;10.326;2023-04-24T06:01:15;8.90;99.90
16674;DHT22;8450;52.654;10.326;2023-04-24T06:03:44;8.90;99.90
16674;DHT22;8450;52.654;10.326;2023-04-24T06:06:10;9.00;99.90
16674;DHT22;8450;52.654;10.326;2023-04-24T06:08:35;9.10;99.90
16674;DHT22;8450;52.654;10.326;2023-04-24T06:11:01;9.10;99.90
16674;DHT22;8450;52.654;10.326;2023-04-24T06:13:27;9.20;99.90
16674;DHT22;8450;52.654;10.326;2023-04-24T06:16:27;9.20;99.90
16674;DHT22;8450;52.654;10.326;2023-04-24T06:18:59;9.30;99.90
16674;DHT22;8450;52.654;10.326;2023-04-24T06:21:25;9.30;99.90
16674;DHT22;8450;52.654;10.326;2023-04-24T06:23:51;9.40;99.90
16674;DHT22;8450;52.654;10.326;2023-04-24T06:26:16;9.40;99.90
16674;DHT22;8450;52.654;10.326;2023-04-24T06:28:42;9.50;99.90
16674;DHT22;8450;52.654;10.326;2023-04-24T06:31:07;9.50;99.90
16674;DHT22;8450;52.654;10.326;2023-04-24T06:33:33;9.60;99.90
16674;DHT22;8450;52.654;10.326;2023-04-24T06:35:59;9.60;99.90
16674;DHT22;8450;52.654;10.326;2023-04-24T06:38:24;9.70;99.90
16674;DHT22;8450;52.654;10.326;2023-04-24T06:40:50;9.70;99.90
16674;DHT22;8450;52.654;10.326;2023-04-24T06:43:16;9.80;99.90
16674;DHT22;8450;52.654;10.326;2023-04-24T06:45:41;9.90;99.90
16674;DHT22;8450;52.654;10.326;2023-04-24T06:48:09;9.90;99.90
16674;DHT22;8450;52.654;10.326;2023-04-24T06:50:35;10.00;99.90
16674;DHT22;8450;52.654;10.326;2023-04-24T06:53:00;10.10;99.90
16674;DHT22;8450;52.654;10.326;2023-04-24T06:55:26;10.20;99.90
16674;DHT22;8450;52.654;10.326;2023-04-24T06:57:51;10.30;99.90
16674;DHT22;8450;52.654;10.326;2023-04-24T07:00:17;10.40;99.90
16674;DHT22;8450;52.654;10.326;2023-04-24T07:02:42;10.40;99.90
16674;DHT22;8450;52.654;10.326;2023-04-24T07:05:08;10.50;99.90
16674;DHT22;8450;52.654;10.326;2023-04-24T07:07:34;10.60;99.90
16674;DHT22;8450;52.654;10.326;2023-04-24T07:10:00;10.70;99.90
16674;DHT22;8450;52.654;10.326;2023-04-24T07:12:25;10.70;99.90
16674;DHT22;8450;52.654;10.326;2023-04-24T07:14:51;10.80;99.90
16674;DHT22;8450;52.654;10.326;2023-04-24T07:17:17;10.90;99.90
16674;DHT22;8450;52.654;10.326;2023-04-24T07:19:42;10.90;99.90
16674;DHT22;8450;52.654;10.326;2023-04-24T07:22:08;11.00;99.90
16674;DHT22;8450;52.654;10.326;2023-04-24T07:24:33;11.00;99.90
16674;DHT22;8450;52.654;10.326;2023-04-24T07:26:59;11.10;99.90
16674;DHT22;8450;52.654;10.326;2023-04-24T07:29:26;11.10;99.90
16674;DHT22;8450;52.654;10.326;2023-04-24T07:31:52;11.20;99.90
16674;DHT22;8450;52.654;10.326;2023-04-24T07:34:19;11.30;99.90
16674;DHT22;8450;52.654;10.326;2023-04-24T07:36:45;11.30;99.90
16674;DHT22;8450;52.654;10.326;2023-04-24T07:39:11;11.30;99.90
16674;DHT22;8450;52.654;10.326;2023-04-24T07:41:36;11.40;99.90
16674;DHT22;8450;52.654;10.326;2023-04-24T07:44:02;11.40;99.90
16674;DHT22;8450;52.654;10.326;2023-04-24T07:46:27;11.50;99.90
16674;DHT22;8450;52.654;10.326;2023-04-24T07:48:55;11.50;99.90
16674;DHT22;8450;52.654;10.326;2023-04-24T07:51:20;11.60;99.90
16674;DHT22;8450;52.654;10.326;2023-04-24T07:53:46;11.60;99.90
16674;DHT22;8450;52.654;10.326;2023-04-24T07:56:12;11.70;99.90
16674;DHT22;8450;52.654;10.326;2023-04-24T07:58:37;11.80;99.90
16674;DHT22;8450;52.654;10.326;2023-04-24T08:01:03;11.80;99.90
16674;DHT22;8450;52.654;10.326;2023-04-24T08:03:28;11.90;99.90
16674;DHT22;8450;52.654;10.326;2023-04-24T08:05:54;12.00;99.90
16674;DHT22;8450;52.654;10.326;2023-04-24T08:08:22;12.00;99.90
16674;DHT22;8450;52.654;10.326;2023-04-24T08:10:48;12.10;99.90
16674;DHT22;8450;52.654;10.326;2023-04-24T08:13:14;12.20;99.90
16674;DHT22;8450;52.654;10.326;2023-04-24T08:15:39;12.30;99.90
16674;DHT22;8450;52.654;10.326;2023-04-24T08:18:05;12.40;99.90
16674;DHT22;8450;52.654;10.326;2023-04-24T08:20:30;12.40;99.90
16674;DHT22;8450;52.654;10.326;2023-04-24T08:22:56;12.40;99.90
16674;DHT22;8450;52.654;10.326;2023-04-24T08:25:21;12.40;99.90
16674;DHT22;8450;52.654;10.326;2023-04-24T08:27:48;12.40;99.90
16674;DHT22;8450;52.654;10.326;2023-04-24T08:30:14;12.40;99.90
16674;DHT22;8450;52.654;10.326;2023-04-24T08:32:40;12.50;99.90
16674;DHT22;8450;52.654;10.326;2023-04-24T08:35:05;12.50;99.90
16674;DHT22;8450;52.654;10.326;2023-04-24T08:37:31;12.50;99.90
16674;DHT22;8450;52.654;10.326;2023-04-24T08:39:57;12.50;99.90
16674;DHT22;8450;52.654;10.326;2023-04-24T08:42:23;12.60;99.90
16674;DHT22;8450;52.654;10.326;2023-04-24T08:44:49;12.60;99.90
16674;DHT22;8450;52.654;10.326;2023-04-24T08:47:15;12.60;99.90
16674;DHT22;8450;52.654;10.326;2023-04-24T08:49:42;12.70;99.90
16674;DHT22;8450;52.654;10.326;2023-04-24T08:52:08;12.70;99.90
16674;DHT22;8450;52.654;10.326;2023-04-24T08:54:35;12.80;99.90
16674;DHT22;8450;52.654;10.326;2023-04-24T08:57:02;12.90;99.90
16674;DHT22;8450;52.654;10.326;2023-04-24T08:59:32;13.00;99.90
16674;DHT22;8450;52.654;10.326;2023-04-24T09:02:00;13.20;99.90
16674;DHT22;8450;52.654;10.326;2023-04-24T09:04:27;13.30;99.90
16674;DHT22;8450;52.654;10.326;2023-04-24T09:06:57;13.50;99.90
16674;DHT22;8450;52.654;10.326;2023-04-24T09:09:30;13.60;99.90
16674;DHT22;8450;52.654;10.326;2023-04-24T09:11:56;13.80;99.90
16674;DHT22;8450;52.654;10.326;2023-04-24T09:14:22;13.80;99.90
16674;DHT22;8450;52.654;10.326;2023-04-24T09:16:49;13.90;99.90
16674;DHT22;8450;52.654;10.326;2023-04-24T09:19:15;14.00;99.90
16674;DHT22;8450;52.654;10.326;2023-04-24T09:21:45;14.10;99.90
16674;DHT22;8450;52.654;10.326;2023-04-24T09:24:16;14.20;99.90
16674;DHT22;8450;52.654;10.326;2023-04-24T09:26:43;14.40;99.90
16674;DHT22;8450;52.654;10.326;2023-04-24T09:29:17;14.50;99.90
16674;DHT22;8450;52.654;10.326;2023-04-24T09:31:43;14.60;99.90
16674;DHT22;8450;52.654;10.326;2023-04-24T09:34:09;14.60;99.90
16674;DHT22;8450;52.654;10.326;2023-04-24T09:36:42;14.60;99.90
16674;DHT22;8450;52.654;10.326;2023-04-24T09:39:13;14.70;99.90
16674;DHT22;8450;52.654;10.326;2023-04-24T09:41:47;14.80;99.90
16674;DHT22;8450;52.654;10.326;2023-04-24T09:44:24;14.80;99.90
16674;DHT22;8450;52.654;10.326;2023-04-24T09:46:52;14.90;99.90
16674;DHT22;8450;52.654;10.326;2023-04-24T09:49:28;14.90;99.90
16674;DHT22;8450;52.654;10.326;2023-04-24T09:52:07;15.00;99.90
16674;DHT22;8450;52.654;10.326;2023-04-24T09:54:33;15.20;99.90
16674;DHT22;8450;52.654;10.326;2023-04-24T09:56:59;15.40;99.90
16674;DHT22;8450;52.654;10.326;2023-04-24T09:59:27;15.50;99.90
16674;DHT22;8450;52.654;10.326;2023-04-24T10:01:53;15.70;99.90
16674;DHT22;8450;52.654;10.326;2023-04-24T10:04:23;15.90;99.90
16674;DHT22;8450;52.654;10.326;2023-04-24T10:06:51;16.20;99.90
16674;DHT22;8450;52.654;10.326;2023-04-24T10:09:21;16.30;99.90
16674;DHT22;8450;52.654;10.326;2023-04-24T10:11:49;16.40;99.90
16674;DHT22;8450;52.654;10.326;2023-04-24T10:14:17;16.50;99.90
16674;DHT22;8450;52.654;10.326;2023-04-24T10:16:43;16.50;99.90
16674;DHT22;8450;52.654;10.326;2023-04-24T10:19:09;16.50;99.90
16674;DHT22;8450;52.654;10.326;2023-04-24T10:21:35;16.50;99.90
16674;DHT22;8450;52.654;10.326;2023-04-24T10:24:04;16.50;99.90
16674;DHT22;8450;52.654;10.326;2023-04-24T10:26:32;16.50;99.90
16674;DHT22;8450;52.654;10.326;2023-04-24T10:28:58;16.50;99.90
16674;DHT22;8450;52.654;10.326;2023-04-24T10:31:24;16.50;99.90
16674;DHT22;8450;52.654;10.326;2023-04-24T10:33:51;16.40;99.90
16674;DHT22;8450;52.654;10.326;2023-04-24T10:36:18;16.40;99.90
16674;DHT22;8450;52.654;10.326;2023-04-24T10:38:45;16.30;99.90
16674;DHT22;8450;52.654;10.326;2023-04-24T10:41:12;16.20;99.90
16674;DHT22;8450;52.654;10.326;2023-04-24T10:43:45;16.20;99.90
16674;DHT22;8450;52.654;10.326;2023-04-24T10:46:19;16.10;99.90
16674;DHT22;8450;52.654;10.326;2023-04-24T10:48:52;16.10;99.90
16674;DHT22;8450;52.654;10.326;2023-04-24T10:51:22;16.10;99.90
16674;DHT22;8450;52.654;10.326;2023-04-24T10:53:50;16.10;99.90
16674;DHT22;8450;52.654;10.326;2023-04-24T10:56:16;16.10;99.90
16674;DHT22;8450;52.654;10.326;2023-04-24T10:58:49;16.00;99.90
16674;DHT22;8450;52.654;10.326;2023-04-24T11:01:29;16.00;99.90
16674;DHT22;8450;52.654;10.326;2023-04-24T11:04:04;15.90;99.90
16674;DHT22;8450;52.654;10.326;2023-04-24T11:06:36;15.90;99.90
16674;DHT22;8450;52.654;10.326;2023-04-24T11:09:10;15.80;99.90
16674;DHT22;8450;52.654;10.326;2023-04-24T11:11:38;15.70;99.90
16674;DHT22;8450;52.654;10.326;2023-04-24T11:14:09;15.60;99.90
16674;DHT22;8450;52.654;10.326;2023-04-24T11:16:43;15.50;99.90
16674;DHT22;8450;52.654;10.326;2023-04-24T11:21:47;15.40;99.90
16674;DHT22;8450;52.654;10.326;2023-04-24T11:24:26;15.40;99.90
16674;DHT22;8450;52.654;10.326;2023-04-24T11:27:00;15.30;99.90
16674;DHT22;8450;52.654;10.326;2023-04-24T11:29:43;15.20;99.90
16674;DHT22;8450;52.654;10.326;2023-04-24T11:32:27;15.20;99.90
16674;DHT22;8450;52.654;10.326;2023-04-24T11:34:55;15.10;99.90
16674;DHT22;8450;52.654;10.326;2023-04-24T11:37:22;15.10;99.90
16674;DHT22;8450;52.654;10.326;2023-04-24T11:39:57;15.00;99.90
16674;DHT22;8450;52.654;10.326;2023-04-24T11:42:22;15.00;99.90
16674;DHT22;8450;52.654;10.326;2023-04-24T11:44:53;14.90;99.90
16674;DHT22;8450;52.654;10.326;2023-04-24T11:47:27;14.80;99.90
16674;DHT22;8450;52.654;10.326;2023-04-24T11:49:52;14.70;99.90
16674;DHT22;8450;52.654;10.326;2023-04-24T11:52:19;14.60;99.90
16674;DHT22;8450;52.654;10.326;2023-04-24T11:54:49;14.50;99.90
16674;DHT22;8450;52.654;10.326;2023-04-24T11:57:15;14.50;99.90
16674;DHT22;8450;52.654;10.326;2023-04-24T11:59:41;14.40;99.90
16674;DHT22;8450;52.654;10.326;2023-04-24T12:02:07;14.30;99.90
16674;DHT22;8450;52.654;10.326;2023-04-24T12:04:41;14.20;99.90
16674;DHT22;8450;52.654;10.326;2023-04-24T12:07:07;14.20;99.90
16674;DHT22;8450;52.654;10.326;2023-04-24T12:09:44;14.20;99.90
16674;DHT22;8450;52.654;10.326;2023-04-24T12:12:11;14.10;99.90
16674;DHT22;8450;52.654;10.326;2023-04-24T12:14:53;14.10;99.90
16674;DHT22;8450;52.654;10.326;2023-04-24T12:17:24;14.00;99.90
16674;DHT22;8450;52.654;10.326;2023-04-24T12:19:50;14.00;99.90
16674;DHT22;8450;52.654;10.326;2023-04-24T12:22:16;13.90;99.90
16674;DHT22;8450;52.654;10.326;2023-04-24T12:25:04;13.90;99.90
16674;DHT22;8450;52.654;10.326;2023-04-24T12:27:34;13.70;99.90
16674;DHT22;8450;52.654;10.326;2023-04-24T12:30:01;13.60;99.90
16674;DHT22;8450;52.654;10.326;2023-04-24T12:32:27;13.50;99.90
16674;DHT22;8450;52.654;10.326;2023-04-24T12:34:53;13.30;99.90
16674;DHT22;8450;52.654;10.326;2023-04-24T12:37:19;13.20;99.90
16674;DHT22;8450;52.654;10.326;2023-04-24T12:40:05;13.10;99.90
16674;DHT22;8450;52.654;10.326;2023-04-24T12:42:31;13.00;99.90
16674;DHT22;8450;52.654;10.326;2023-04-24T12:44:59;13.00;99.90
16674;DHT22;8450;52.654;10.326;2023-04-24T12:47:26;12.90;99.90
16674;DHT22;8450;52.654;10.326;2023-04-24T12:49:51;12.90;99.90
16674;DHT22;8450;52.654;10.326;2023-04-24T12:52:18;12.90;99.90
16674;DHT22;8450;52.654;10.326;2023-04-24T12:54:45;12.90;99.90
16674;DHT22;8450;52.654;10.326;2023-04-24T12:57:11;12.90;99.90
16674;DHT22;8450;52.654;10.326;2023-04-24T12:59:37;12.90;99.90
16674;DHT22;8450;52.654;10.326;2023-04-24T13:02:04;12.80;99.90
16674;DHT22;8450;52.654;10.326;2023-04-24T13:04:30;12.90;99.90
16674;DHT22;8450;52.654;10.326;2023-04-24T13:06:55;12.90;99.90
16674;DHT22;8450;52.654;10.326;2023-04-24T13:09:21;13.00;99.90
16674;DHT22;8450;52.654;10.326;2023-04-24T13:11:47;13.00;99.90
16674;DHT22;8450;52.654;10.326;2023-04-24T13:14:12;13.00;99.90
16674;DHT22;8450;52.654;10.326;2023-04-24T13:16:38;13.00;99.90
16674;DHT22;8450;52.654;10.326;2023-04-24T13:19:03;13.00;99.90
16674;DHT22;8450;52.654;10.326;2023-04-24T13:21:29;13.00;99.90
16674;DHT22;8450;52.654;10.326;2023-04-24T13:23:55;13.10;99.90
16674;DHT22;8450;52.654;10.326;2023-04-24T13:26:21;13.10;99.90
16674;DHT22;8450;52.654;10.326;2023-04-24T13:28:46;13.00;99.90
16674;DHT22;8450;52.654;10.326;2023-04-24T13:31:12;13.00;99.90
16674;DHT22;8450;52.654;10.326;2023-04-24T13:33:39;13.00;99.90
16674;DHT22;8450;52.654;10.326;2023-04-24T13:36:05;13.00;99.90
16674;DHT22;8450;52.654;10.326;2023-04-24T13:38:31;13.00;99.90
16674;DHT22;8450;52.654;10.326;2023-04-24T13:40:56;13.00;99.90
16674;DHT22;8450;52.654;10.326;2023-04-24T13:43:22;13.00;99.90
16674;DHT22;8450;52.654;10.326;2023-04-24T13:45:48;13.00;99.90
16674;DHT22;8450;52.654;10.326;2023-04-24T13:48:13;13.10;99.90
16674;DHT22;8450;52.654;10.326;2023-04-24T13:50:41;13.10;99.90
16674;DHT22;8450;52.654;10.326;2023-04-24T13:53:07;13.10;99.90
16674;DHT22;8450;52.654;10.326;2023-04-24T13:55:33;13.00;99.90
16674;DHT22;8450;52.654;10.326;2023-04-24T13:57:58;13.00;99.90
16674;DHT22;8450;52.654;10.326;2023-04-24T14:00:24;13.00;99.90
16674;DHT22;8450;52.654;10.326;2023-04-24T14:02:49;12.90;99.90
16674;DHT22;8450;52.654;10.326;2023-04-24T14:05:15;12.90;99.90
16674;DHT22;8450;52.654;10.326;2023-04-24T14:07:41;12.80;99.90
16674;DHT22;8450;52.654;10.326;2023-04-24T14:10:07;12.70;99.90
16674;DHT22;8450;52.654;10.326;2023-04-24T14:12:33;12.70;99.90
16674;DHT22;8450;52.654;10.326;2023-04-24T14:14:59;12.60;99.90
16674;DHT22;8450;52.654;10.326;2023-04-24T14:17:24;12.60;99.90
16674;DHT22;8450;52.654;10.326;2023-04-24T14:19:50;12.50;99.90
16674;DHT22;8450;52.654;10.326;2023-04-24T14:22:17;12.40;99.90
16674;DHT22;8450;52.654;10.326;2023-04-24T14:24:43;12.40;99.90
16674;DHT22;8450;52.654;10.326;2023-04-24T14:27:08;12.30;99.90
16674;DHT22;8450;52.654;10.326;2023-04-24T14:29:34;12.30;99.90
16674;DHT22;8450;52.654;10.326;2023-04-24T14:31:59;12.20;99.90
16674;DHT22;8450;52.654;10.326;2023-04-24T14:34:25;12.10;99.90
16674;DHT22;8450;52.654;10.326;2023-04-24T14:36:52;12.10;99.90
16674;DHT22;8450;52.654;10.326;2023-04-24T14:39:17;12.00;99.90
16674;DHT22;8450;52.654;10.326;2023-04-24T14:41:43;12.00;99.90
16674;DHT22;8450;52.654;10.326;2023-04-24T14:44:08;11.90;99.90
16674;DHT22;8450;52.654;10.326;2023-04-24T14:46:34;11.80;99.90
16674;DHT22;8450;52.654;10.326;2023-04-24T14:49:00;11.80;99.90
16674;DHT22;8450;52.654;10.326;2023-04-24T14:51:25;11.70;99.90
16674;DHT22;8450;52.654;10.326;2023-04-24T14:53:51;11.70;99.90
16674;DHT22;8450;52.654;10.326;2023-04-24T14:56:17;11.60;99.90
16674;DHT22;8450;52.654;10.326;2023-04-24T14:58:42;11.50;99.90
16674;DHT22;8450;52.654;10.326;2023-04-24T15:01:08;11.40;99.90
16674;DHT22;8450;52.654;10.326;2023-04-24T15:03:33;11.40;99.90
16674;DHT22;8450;52.654;10.326;2023-04-24T15:05:59;11.30;99.90
16674;DHT22;8450;52.654;10.326;2023-04-24T15:08:24;11.20;99.90
16674;DHT22;8450;52.654;10.326;2023-04-24T15:10:50;11.10;99.90
16674;DHT22;8450;52.654;10.326;2023-04-24T15:13:16;11.00;99.90
16674;DHT22;8450;52.654;10.326;2023-04-24T15:15:41;11.00;99.90
16674;DHT22;8450;52.654;10.326;2023-04-24T15:18:08;10.90;99.90
16674;DHT22;8450;52.654;10.326;2023-04-24T15:20:36;10.80;99.90
16674;DHT22;8450;52.654;10.326;2023-04-24T15:23:01;10.80;99.90
16674;DHT22;8450;52.654;10.326;2023-04-24T15:25:27;10.70;99.90
16674;DHT22;8450;52.654;10.326;2023-04-24T15:27:53;10.70;99.90
16674;DHT22;8450;52.654;10.326;2023-04-24T15:30:18;10.70;99.90
16674;DHT22;8450;52.654;10.326;2023-04-24T15:32:44;10.70;99.90
16674;DHT22;8450;52.654;10.326;2023-04-24T15:35:10;10.60;99.90
16674;DHT22;8450;52.654;10.326;2023-04-24T15:37:36;10.60;99.90
16674;DHT22;8450;52.654;10.326;2023-04-24T15:40:02;10.50;99.90
16674;DHT22;8450;52.654;10.326;2023-04-24T15:42:30;10.40;99.90
16674;DHT22;8450;52.654;10.326;2023-04-24T15:44:56;10.40;99.90
16674;DHT22;8450;52.654;10.326;2023-04-24T15:47:21;10.30;99.90
16674;DHT22;8450;52.654;10.326;2023-04-24T15:49:47;10.20;99.90
16674;DHT22;8450;52.654;10.326;2023-04-24T15:52:12;10.20;99.90
16674;DHT22;8450;52.654;10.326;2023-04-24T15:54:39;10.20;99.90
16674;DHT22;8450;52.654;10.326;2023-04-24T15:57:06;10.10;99.90
16674;DHT22;8450;52.654;10.326;2023-04-24T15:59:31;10.10;99.90
16674;DHT22;8450;52.654;10.326;2023-04-24T16:01:57;10.00;99.90
16674;DHT22;8450;52.654;10.326;2023-04-24T16:04:22;10.00;99.90
16674;DHT22;8450;52.654;10.326;2023-04-24T16:06:48;9.90;99.90
16674;DHT22;8450;52.654;10.326;2023-04-24T16:09:13;9.90;99.90
16674;DHT22;8450;52.654;10.326;2023-04-24T16:11:39;9.90;99.90
16674;DHT22;8450;52.654;10.326;2023-04-24T16:14:05;9.80;99.90
16674;DHT22;8450;52.654;10.326;2023-04-24T16:16:30;9.70;99.90
16674;DHT22;8450;52.654;10.326;2023-04-24T16:18:56;9.70;99.90
16674;DHT22;8450;52.654;10.326;2023-04-24T16:21:22;9.70;99.90
16674;DHT22;8450;52.654;10.326;2023-04-24T16:23:47;9.70;99.90
16674;DHT22;8450;52.654;10.326;2023-04-24T16:26:13;9.60;99.90
16674;DHT22;8450;52.654;10.326;2023-04-24T16:28:40;9.60;99.90
16674;DHT22;8450;52.654;10.326;2023-04-24T16:31:07;9.60;99.90
16674;DHT22;8450;52.654;10.326;2023-04-24T16:33:33;9.60;99.90
16674;DHT22;8450;52.654;10.326;2023-04-24T16:35:58;9.50;99.90
16674;DHT22;8450;52.654;10.326;2023-04-24T16:38:24;9.50;99.90
16674;DHT22;8450;52.654;10.326;2023-04-24T16:40:50;9.50;99.90
16674;DHT22;8450;52.654;10.326;2023-04-24T16:43:16;9.40;99.90
16674;DHT22;8450;52.654;10.326;2023-04-24T16:45:42;9.40;99.90
16674;DHT22;8450;52.654;10.326;2023-04-24T16:48:07;9.40;99.90
16674;DHT22;8450;52.654;10.326;2023-04-24T16:50:35;9.40;99.90
16674;DHT22;8450;52.654;10.326;2023-04-24T17:00:28;9.30;99.90
16674;DHT22;8450;52.654;10.326;2023-04-24T17:02:54;9.30;99.90
16674;DHT22;8450;52.654;10.326;2023-04-24T17:05:19;9.20;99.90
16674;DHT22;8450;52.654;10.326;2023-04-24T17:11:24;9.20;99.90
16674;DHT22;8450;52.654;10.326;2023-04-24T17:13:50;9.20;99.90
16674;DHT22;8450;52.654;10.326;2023-04-24T17:16:15;9.20;99.90
16674;DHT22;8450;52.654;10.326;2023-04-24T17:18:41;9.10;99.90
